Terminal Aerodrome Forecast
Issued by NWS Sioux Falls, SD

Home | Current Version | Previous Version | Graphics & Text | Print | Product List | Glossary Off
Versions: 1 2 3 4 5 6 7 8 9 10 11 12 13 14 15

426
FTUS43 KFSD 161739
TAFHON
TAF
KHON 161739Z 1618/1718 18010G16KT P6SM FEW250
     FM162300 19008KT P6SM FEW200
     FM170600 19006KT P6SM SCT050 BKN100
     FM171700 VRB05KT P6SM SCT040 BKN060=

USA.gov is the U.S. government's official web portal to all federal, state and local government web resources and services.